createdAt,value
2022-12-15T00:02:17.173Z,-4.78
2022-12-15T00:05:02.281Z,-4.74
2022-12-15T00:07:47.604Z,-4.74
2022-12-15T00:10:34.520Z,-4.71
2022-12-15T00:13:19.570Z,-4.72
2022-12-15T00:16:05.829Z,-4.83
2022-12-15T00:18:50.938Z,-4.72
2022-12-15T00:21:36.562Z,-4.72
2022-12-15T00:24:21.798Z,-4.70
2022-12-15T00:27:06.553Z,-4.74
2022-12-15T00:29:51.496Z,-4.79
2022-12-15T00:32:36.541Z,-4.71
2022-12-15T00:35:21.704Z,-4.75
2022-12-15T00:38:07.891Z,-4.76
2022-12-15T00:40:35.057Z,-4.74
2022-12-15T00:43:01.695Z,-4.83
2022-12-15T00:45:48.326Z,-4.74
2022-12-15T00:48:14.991Z,-4.74
2022-12-15T00:50:54.573Z,-4.73
2022-12-15T00:53:40.845Z,-4.72
2022-12-15T00:56:26.827Z,-4.70
2022-12-15T00:59:12.186Z,-4.67
2022-12-15T01:01:57.472Z,-4.66
2022-12-15T01:04:42.531Z,-4.65
2022-12-15T01:07:27.915Z,-4.62
2022-12-15T01:10:13.093Z,-4.63
2022-12-15T01:12:58.610Z,-4.78
2022-12-15T01:15:43.816Z,-4.60
2022-12-15T01:18:28.976Z,-4.61
2022-12-15T01:21:00.275Z,-4.82
2022-12-15T01:23:27.777Z,-4.57
2022-12-15T01:25:55.881Z,-4.56
2022-12-15T01:28:22.999Z,-4.69
2022-12-15T01:30:49.852Z,-4.56
2022-12-15T01:33:18.465Z,-4.53
2022-12-15T01:35:45.430Z,-4.57
2022-12-15T01:38:12.025Z,-4.59
2022-12-15T01:40:50.242Z,-4.61
2022-12-15T01:43:22.828Z,-4.75
2022-12-15T01:45:57.513Z,-4.60
2022-12-15T01:48:29.688Z,-4.62
2022-12-15T01:51:04.262Z,-4.61
2022-12-15T01:53:36.003Z,-4.59
2022-12-15T01:56:05.972Z,-4.68
2022-12-15T01:58:32.999Z,-4.57
2022-12-15T02:01:02.296Z,-4.65
2022-12-15T02:03:30.425Z,-4.56
2022-12-15T02:06:00.794Z,-4.56
2022-12-15T02:08:28.022Z,-4.60
2022-12-15T02:10:56.206Z,-4.51
2022-12-15T02:13:35.289Z,-4.56
2022-12-15T02:16:12.300Z,-4.51
2022-12-15T02:18:52.099Z,-4.52
2022-12-15T02:21:27.182Z,-4.49
2022-12-15T02:24:15.347Z,-4.48
2022-12-15T02:27:13.661Z,-4.47
2022-12-15T02:29:46.175Z,-4.47
2022-12-15T02:32:21.015Z,-4.50
2022-12-15T02:35:02.014Z,-4.42
2022-12-15T02:37:37.734Z,-4.44
2022-12-15T02:40:07.590Z,-4.45
2022-12-15T02:42:37.171Z,-4.43
2022-12-15T02:45:09.506Z,-4.46
2022-12-15T19:52:58.323Z,-6.19
2022-12-15T19:55:33.852Z,-6.12
2022-12-15T19:58:11.605Z,-6.05
2022-12-15T20:00:39.607Z,-5.97
2022-12-15T20:03:06.344Z,-5.92
2022-12-15T20:05:33.162Z,-5.90
2022-12-15T20:08:00.120Z,-6.07
2022-12-15T20:10:32.297Z,-5.82
2022-12-15T20:13:00.911Z,-5.94
2022-12-15T20:15:28.136Z,-5.81
2022-12-15T20:17:58.117Z,-5.81
2022-12-15T20:20:27.741Z,-5.82
2022-12-15T20:22:56.655Z,-5.80
2022-12-15T20:25:37.371Z,-5.94
2022-12-15T20:28:10.258Z,-5.89
2022-12-15T20:30:37.991Z,-5.93
2022-12-15T20:33:05.317Z,-5.88
2022-12-15T20:35:34.679Z,-5.86
2022-12-15T20:38:06.202Z,-5.81
2022-12-15T20:40:33.070Z,-5.78
2022-12-15T20:42:59.683Z,-5.67
2022-12-15T20:45:28.033Z,-5.61
2022-12-15T20:47:56.063Z,-5.60
2022-12-15T20:50:39.068Z,-5.55
2022-12-15T20:53:22.316Z,-5.57
2022-12-15T20:55:51.049Z,-5.46
2022-12-15T20:58:18.493Z,-5.41
2022-12-15T21:00:46.098Z,-5.45
2022-12-15T21:03:29.982Z,-5.37
2022-12-15T21:05:58.777Z,-5.36
2022-12-15T21:08:28.020Z,-5.39
2022-12-15T21:10:59.910Z,-5.34
2022-12-15T21:13:30.327Z,-5.29
2022-12-15T21:15:57.270Z,-5.26
2022-12-15T21:21:18.794Z,-5.11
2022-12-15T21:23:46.558Z,-5.07
2022-12-15T21:26:18.427Z,-5.19
2022-12-15T21:28:45.098Z,-4.96
2022-12-15T21:31:12.180Z,-4.93
2022-12-15T21:33:38.774Z,-4.90
2022-12-15T21:36:05.666Z,-4.86
2022-12-15T21:38:37.725Z,-4.84
2022-12-15T21:41:07.397Z,-4.86
2022-12-15T21:43:35.872Z,-5.00
2022-12-15T21:46:10.448Z,-4.85
2022-12-15T21:48:55.515Z,-4.76
2022-12-15T21:51:23.797Z,-4.74
2022-12-15T21:53:51.139Z,-4.72
2022-12-15T21:56:20.313Z,-4.78
2022-12-15T21:58:54.791Z,-4.72
2022-12-15T22:01:30.558Z,-4.66
2022-12-15T22:04:02.870Z,-4.67
2022-12-15T22:06:30.773Z,-4.65
2022-12-15T22:08:58.763Z,-4.69
2022-12-15T22:11:28.350Z,-4.70
2022-12-15T22:13:57.072Z,-4.63
2022-12-15T22:16:23.970Z,-4.65
2022-12-15T22:18:54.967Z,-4.60
2022-12-15T22:21:22.208Z,-4.62
2022-12-15T22:23:48.818Z,-4.64
2022-12-15T22:26:34.317Z,-4.66
2022-12-15T22:29:02.023Z,-4.73
2022-12-15T22:31:29.441Z,-4.70
2022-12-15T22:33:56.084Z,-4.68
2022-12-15T22:36:22.650Z,-4.62
2022-12-15T22:38:49.225Z,-4.64
2022-12-15T22:41:23.220Z,-4.62
2022-12-15T22:43:55.172Z,-4.71
2022-12-15T22:46:24.334Z,-4.62
2022-12-15T22:48:52.889Z,-4.65
2022-12-15T22:51:21.726Z,-4.65
2022-12-15T22:53:49.145Z,-4.63
2022-12-15T22:56:21.094Z,-4.62
2022-12-15T22:58:50.142Z,-4.66
2022-12-15T23:01:19.154Z,-4.67
2022-12-15T23:03:45.801Z,-4.70
2022-12-15T23:06:12.590Z,-4.76
2022-12-15T23:08:39.116Z,-4.86
2022-12-15T23:11:24.247Z,-4.83
2022-12-15T23:13:50.782Z,-4.82
2022-12-15T23:16:21.619Z,-4.79
2022-12-15T23:18:53.666Z,-4.83
2022-12-15T23:21:22.568Z,-4.88
2022-12-15T23:23:49.504Z,-4.88
2022-12-15T23:26:19.278Z,-4.89
2022-12-15T23:28:46.283Z,-4.92
2022-12-15T23:31:13.027Z,-4.87
2022-12-15T23:33:41.794Z,-4.84
2022-12-15T23:36:09.891Z,-4.85
2022-12-15T23:38:36.519Z,-4.90
2022-12-15T23:41:03.217Z,-4.86
2022-12-15T23:43:32.842Z,-4.90
2022-12-15T23:46:03.171Z,-4.91
2022-12-15T23:48:32.289Z,-4.87
2022-12-15T23:51:24.445Z,-4.89
2022-12-15T23:53:52.331Z,-4.92
2022-12-15T23:56:24.113Z,-4.93
2022-12-15T23:58:56.600Z,-4.90
